Huvudsida
METAR-TAF:

METAR-TAF

Flygplatser :

Vadsø, Norge

Vadsø flygplats

latitud: 70-04N, longitud: 029-51E, höjd: 3 m

Aktuellt väderrapport

Denna rapport gjordes för 37 minuter sedan, klockan 17:50 UTC
Vind 14 kt från nordväst
Temperatur -3°C
Fuktighet 80%
Tryck 1012 hPa
Sikt 10 km eller mer
Få moln på en höjd av 2000 ft

METAR: ENVD 221750Z 32014KT 9999 FEW020 M03/M06 Q1012

Tid: 20:27 (18:27 UTC)

Väderprognos

Denna rapport gjordes för 1 timme och 27 minuter sedan, klockan 17:00 UTC
Prognos gäller från 22 kl. 18 UTC till 22 kl. 23 UTC
Vind 8 kt från nordväst
Sikt 10 km eller mer
Spridda moln på en höjd av 4000 ft

TAF: ENVD 221700Z 2218/2223 32008KT 9999 SCT040

Aktuella väderrapporter och prognoser från 4000 flygplatser (METAR- och TAF-rapporter).

De tillgängliga stationerna syns som gula och röda prickar på kartan.

För musen över prickarna för att se namnen på stationerna.

Klicka sedan för att få väderrapporter och prognoser.

För att ändra kartan: Klicka på de gröna knapparna med ett svart kors på för att zooma in; den gröna knappen med ett streck på för att zooma ut; eller på de gröna pilarna för angränsande kartor.


METAR-TAF: